Time;durP1;ratioP1;P1;durP2;ratioP2;P2;SDS_P1;SDS_P2;PMS_P1;PMS_P2;Temp;Humidity;BMP_temperature;BMP_pressure;BME280_temperature;BME280_humidity;BME280_pressure;Samples;Min_cycle;Max_cycle;Signal;HPM_P1;HPM_P2
2023/05/11 00:00:01;;;;;;;;;;;;;;;-144.99;100.00;52250.38;5101712;28;19974;-76
2023/05/11 00:02:28;;;;;;;;;;;;;;;-144.99;100.00;52280.97;5090735;28;19924;-74
2023/05/11 00:04:55;;;;;;;;;;;;;;;-144.99;100.00;52260.56;5096365;28;19924;-75
2023/05/11 00:07:22;;;;;;;;;;;;;;;-144.99;100.00;52317.66;5092184;28;20322;-74
2023/05/11 00:09:48;;;;;;;;;;;;;;;-144.99;100.00;52276.88;5092510;28;19928;-74
2023/05/11 00:12:15;;;;;;;;;;;;;;;-144.99;100.00;52254.47;5101881;28;19955;-74
2023/05/11 00:14:41;;;;;;;;;;;;;;;-144.99;100.00;52252.44;5099172;28;19932;-70
2023/05/11 00:17:08;;;;;;;;;;;;;;;-144.99;100.00;52315.59;5093028;28;19924;-71
2023/05/11 00:19:35;;;;;;;;;;;;;;;-144.99;100.00;52293.19;5090913;28;20357;-73
2023/05/11 00:22:02;;;;;;;;;;;;;;;-144.99;100.00;52309.50;5090181;28;19932;-73
2023/05/11 00:24:29;;;;;;;;;;;;;;;-144.99;100.00;52268.72;5096281;28;19924;-74
2023/05/11 00:26:55;;;;;;;;;;;;;;;-144.99;100.00;52285.03;5089080;28;19924;-72
2023/05/11 00:29:22;;;;;;;;;;;;;;;-144.99;100.00;52317.66;5091415;28;20025;-73
2023/05/11 00:31:48;;;;;;;;;;;;;;;-144.99;100.00;52280.97;5088826;28;19928;-72
2023/05/11 00:34:15;;;;;;;;;;;;;;;-144.99;100.00;52301.34;5093279;28;19940;-73
2023/05/11 00:36:44;;;;;;;;;;;;;;;-144.99;100.00;52268.72;5087678;28;19978;-75
2023/05/11 00:39:11;;;;;;;;;;;;;;;-144.99;100.00;52295.22;5093651;28;19931;-74
2023/05/11 00:41:37;;;;;;;;;;;;;;;-144.99;100.00;52244.28;5098751;28;20102;-70
2023/05/11 00:44:04;;;;;;;;;;;;;;;-144.99;100.00;52260.56;5098591;28;20036;-69
2023/05/11 00:46:31;;;;;;;;;;;;;;;-144.99;100.00;52280.97;5095721;28;20733;-69
2023/05/11 00:48:57;;;;;;;;;;;;;;;-144.99;100.00;52291.16;5090618;28;19939;-69
2023/05/11 00:51:24;;;;;;;;;;;;;;;-144.99;100.00;52264.66;5098405;28;19928;-69
2023/05/11 00:53:52;;;;;;;;;;;;;;;-144.99;100.00;52285.03;5095099;28;19987;-69
2023/05/11 00:56:20;;;;;;;;;;;;;;;-144.99;100.00;52232.03;5096171;28;19924;-69
2023/05/11 00:58:46;;;;;;;;;;;;;;;-144.99;100.00;52285.03;5091212;28;19939;-69
2023/05/11 01:01:16;;;;;;;;;;;;;;;-144.99;100.00;52297.25;5094296;28;20404;-69
2023/05/11 01:03:43;;;;;;;;;;;;;;;-144.99;100.00;52268.72;5102426;28;20030;-69
2023/05/11 01:06:11;;;;;;;;;;;;;;;-144.99;100.00;52289.13;5092641;28;20326;-69
2023/05/11 01:08:41;;;;;;;;;;;;;;;-144.99;100.00;52270.78;5091039;28;20409;-69
2023/05/11 01:11:15;;;;;;;;;;;;;;;-144.99;100.00;52301.34;5090075;28;20031;-69
2023/05/11 01:13:43;;;;;;;;;;;;;;;-144.99;100.00;52264.66;5098138;27;19931;-68
2023/05/11 01:16:14;;;;;;;;;;;;;;;-144.99;100.00;52293.19;5091214;28;20404;-71
2023/05/11 01:18:43;;;;;;;;;;;;;;;-144.99;100.00;52276.88;5096860;28;20023;-71
2023/05/11 01:21:13;;;;;;;;;;;;;;;-144.99;100.00;52291.16;5092693;28;19924;-68
2023/05/11 01:23:58;;;;;;;;;;;;;;;-144.99;100.00;52276.88;5098891;28;20007;-67
2023/05/11 01:26:36;;;;;;;;;;;;;;;-144.99;100.00;52264.66;5096862;28;20015;-67
2023/05/11 01:29:21;;;;;;;;;;;;;;;-144.99;100.00;52236.13;5093823;28;19977;-67
2023/05/11 01:31:50;;;;;;;;;;;;;;;-144.99;100.00;52268.72;5096882;28;20657;-67
2023/05/11 01:34:17;;;;;;;;;;;;;;;-144.99;100.00;52289.13;5094937;28;19927;-72
2023/05/11 01:36:48;;;;;;;;;;;;;;;-144.99;100.00;52291.16;5095330;28;19973;-72
2023/05/11 01:39:16;;;;;;;;;;;;;;;-144.99;100.00;52268.72;5093168;28;19924;-72
2023/05/11 01:41:45;;;;;;;;;;;;;;;-144.99;100.00;52256.50;5092709;28;20442;-72
2023/05/11 01:44:13;;;;;;;;;;;;;;;-144.99;100.00;52301.34;5096815;28;19975;-72
2023/05/11 01:46:40;;;;;;;;;;;;;;;-144.99;100.00;52276.88;5096691;28;20744;-72
2023/05/11 01:49:08;;;;;;;;;;;;;;;-144.99;100.00;52289.13;5091770;28;19936;-71
2023/05/11 01:51:37;;;;;;;;;;;;;;;-144.99;100.00;52276.88;5098809;28;19928;-73
2023/05/11 01:54:06;;;;;;;;;;;;;;;-144.99;100.00;52297.25;5094370;28;19974;-72
2023/05/11 01:56:33;;;;;;;;;;;;;;;-144.99;100.00;52299.31;5093963;28;19943;-75
2023/05/11 01:59:00;;;;;;;;;;;;;;;-144.99;100.00;52289.13;5092666;28;20355;-73
2023/05/11 02:01:28;;;;;;;;;;;;;;;-144.99;100.00;52305.41;5095131;28;19968;-72
2023/05/11 02:03:55;;;;;;;;;;;;;;;-144.99;100.00;52283.00;5093865;28;19928;-72
2023/05/11 02:06:24;;;;;;;;;;;;;;;-144.99;100.00;52221.84;5094816;28;19990;-71
2023/05/11 02:08:52;;;;;;;;;;;;;;;-144.99;100.00;52301.34;5093180;28;20054;-72
2023/05/11 02:11:20;;;;;;;;;;;;;;;-144.99;100.00;52258.53;5095929;28;19982;-72
2023/05/11 02:13:48;;;;;;;;;;;;;;;-144.99;100.00;52287.06;5097095;27;19932;-73
2023/05/11 02:16:15;;;;;;;;;;;;;;;-144.99;100.00;52303.38;5097522;28;20385;-72
2023/05/11 02:18:42;;;;;;;;;;;;;;;-144.99;100.00;52297.25;5090246;28;20052;-72
2023/05/11 02:21:09;;;;;;;;;;;;;;;-144.99;100.00;52301.34;5092824;28;20305;-72
2023/05/11 02:23:38;;;;;;;;;;;;;;;-144.99;100.00;52315.59;5099589;28;19928;-71
2023/05/11 02:26:06;;;;;;;;;;;;;;;-144.99;100.00;52252.44;5102327;28;19969;-72
2023/05/11 02:28:32;;;;;;;;;;;;;;;-144.99;100.00;52276.88;5089346;28;19924;-73
2023/05/11 02:31:02;;;;;;;;;;;;;;;-144.99;100.00;52280.97;5089074;28;20287;-71
2023/05/11 02:33:31;;;;;;;;;;;;;;;-144.99;100.00;52313.56;5090504;28;19943;-73
2023/05/11 02:35:59;;;;;;;;;;;;;;;-144.99;100.00;52256.50;5096296;28;19985;-74
2023/05/11 02:38:30;;;;;;;;;;;;;;;-144.99;100.00;52317.66;5093120;28;19928;-72
2023/05/11 02:41:00;;;;;;;;;;;;;;;-144.99;100.00;52287.06;5092826;28;19924;-73
2023/05/11 02:43:30;;;;;;;;;;;;;;;-144.99;100.00;52232.03;5089161;28;20315;-73
2023/05/11 02:46:01;;;;;;;;;;;;;;;-144.99;100.00;52285.03;5089010;28;19944;-75
2023/05/11 02:48:28;;;;;;;;;;;;;;;-144.99;100.00;52285.03;5091804;28;20015;-75
2023/05/11 02:50:55;;;;;;;;;;;;;;;-144.99;100.00;52301.34;5097781;28;19939;-74
2023/05/11 02:53:25;;;;;;;;;;;;;;;-144.99;100.00;52309.50;5098202;27;19928;-73
2023/05/11 02:55:53;;;;;;;;;;;;;;;-144.99;100.00;52280.97;5093555;28;20027;-69
2023/05/11 02:58:21;;;;;;;;;;;;;;;-144.99;100.00;52268.72;5095300;28;20003;-70
2023/05/11 03:00:47;;;;;;;;;;;;;;;-144.99;100.00;52309.50;5086910;28;19963;-69
2023/05/11 03:03:14;;;;;;;;;;;;;;;-144.99;100.00;52285.03;5090806;28;19923;-70
2023/05/11 03:05:40;;;;;;;;;;;;;;;-144.99;100.00;52297.25;5093143;28;19935;-70
2023/05/11 03:08:07;;;;;;;;;;;;;;;-144.99;100.00;52289.13;5094100;28;19975;-73
2023/05/11 03:10:34;;;;;;;;;;;;;;;-144.99;100.00;52309.50;5092805;28;19984;-74
2023/05/11 03:13:01;;;;;;;;;;;;;;;-144.99;100.00;52321.72;5095102;28;19931;-72
2023/05/11 03:15:29;;;;;;;;;;;;;;;-144.99;100.00;52301.34;5093111;28;19977;-72
2023/05/11 03:17:56;;;;;;;;;;;;;;;-144.99;100.00;52293.19;5097928;28;20381;-72
2023/05/11 03:20:23;;;;;;;;;;;;;;;-144.99;100.00;52295.22;5089636;28;20000;-71
2023/05/11 03:22:51;;;;;;;;;;;;;;;-144.99;100.00;52297.25;5089561;28;19954;-70
2023/05/11 03:25:18;;;;;;;;;;;;;;;-144.99;100.00;52317.66;5097574;28;20377;-73
2023/05/11 03:27:45;;;;;;;;;;;;;;;-144.99;100.00;52264.66;5090491;28;20398;-71
2023/05/11 03:30:13;;;;;;;;;;;;;;;-144.99;100.00;52309.50;5096501;28;20249;-74
2023/05/11 03:32:41;;;;;;;;;;;;;;;-144.99;100.00;52309.50;5093841;27;20296;-74
2023/05/11 03:35:08;;;;;;;;;;;;;;;-144.99;100.00;52309.50;5096010;28;19967;-74
2023/05/11 03:37:36;;;;;;;;;;;;;;;-144.99;100.00;52305.41;5095886;28;19924;-74
2023/05/11 03:40:04;;;;;;;;;;;;;;;-144.99;100.00;52325.81;5094557;28;19999;-76
2023/05/11 03:42:31;;;;;;;;;;;;;;;-144.99;100.00;52268.72;5092792;28;20381;-73
2023/05/11 03:44:58;;;;;;;;;;;;;;;-144.99;100.00;52317.66;5095415;28;19924;-74
2023/05/11 03:47:26;;;;;;;;;;;;;;;-144.99;100.00;52297.25;5093855;28;20040;-74
2023/05/11 03:49:54;;;;;;;;;;;;;;;-144.99;100.00;52285.03;5092183;28;19960;-74
2023/05/11 03:52:21;;;;;;;;;;;;;;;-144.99;100.00;52307.47;5094390;28;19928;-73
2023/05/11 03:54:47;;;;;;;;;;;;;;;-144.99;100.00;52297.25;5094804;28;19959;-76
2023/05/11 03:57:14;;;;;;;;;;;;;;;-144.99;100.00;52256.50;5088897;28;19943;-74
2023/05/11 03:59:41;;;;;;;;;;;;;;;-144.99;100.00;52309.50;5094090;28;19931;-74
2023/05/11 04:02:07;;;;;;;;;;;;;;;-144.99;100.00;52264.66;5096999;28;20179;-74
2023/05/11 04:04:34;;;;;;;;;;;;;;;-144.99;100.00;52313.56;5095660;28;19936;-75
2023/05/11 04:07:02;;;;;;;;;;;;;;;-144.99;100.00;52305.41;5089746;28;20114;-74
2023/05/11 04:09:29;;;;;;;;;;;;;;;-144.99;100.00;52297.25;5093614;28;19959;-74
2023/05/11 04:11:55;;;;;;;;;;;;;;;-144.99;100.00;52305.41;5090557;28;19924;-74
2023/05/11 04:14:22;;;;;;;;;;;;;;;-144.99;100.00;52278.91;5097016;27;19935;-74
2023/05/11 04:16:48;;;;;;;;;;;;;;;-144.99;100.00;52276.88;5094369;28;20381;-73
2023/05/11 04:19:15;;;;;;;;;;;;;;;-144.99;100.00;52293.19;5094359;28;20343;-74
2023/05/11 04:21:42;;;;;;;;;;;;;;;-144.99;100.00;52289.13;5103105;28;20011;-73
2023/05/11 04:24:10;;;;;;;;;;;;;;;-144.99;100.00;52276.88;5104660;28;20361;-73
2023/05/11 04:26:37;;;;;;;;;;;;;;;-144.99;100.00;52283.00;5093992;28;20322;-69
2023/05/11 04:29:03;;;;;;;;;;;;;;;-144.99;100.00;52301.34;5091812;28;19924;-69
2023/05/11 04:31:30;;;;;;;;;;;;;;;-144.99;100.00;52285.03;5095584;28;20023;-70
2023/05/11 04:33:57;;;;;;;;;;;;;;;-144.99;100.00;52258.53;5099087;28;19996;-70
2023/05/11 04:36:23;;;;;;;;;;;;;;;-144.99;100.00;52325.81;5102126;28;19967;-69
2023/05/11 04:38:51;;;;;;;;;;;;;;;-144.99;100.00;52276.88;5094832;28;19996;-69
2023/05/11 04:41:21;;;;;;;;;;;;;;;-144.99;100.00;52285.03;5099691;28;19924;-69
2023/05/11 04:43:47;;;;;;;;;;;;;;;-144.99;100.00;52299.31;5102198;28;20381;-69
2023/05/11 04:46:14;;;;;;;;;;;;;;;-144.99;100.00;52297.25;5100732;28;19932;-69
2023/05/11 04:48:40;;;;;;;;;;;;;;;-144.99;100.00;52301.34;5092353;28;19971;-69
2023/05/11 04:51:07;;;;;;;;;;;;;;;-144.99;100.00;52309.50;5100192;28;20133;-70
2023/05/11 04:53:33;;;;;;;;;;;;;;;-144.99;100.00;52297.25;5100252;28;20016;-70
2023/05/11 04:56:00;;;;;;;;;;;;;;;-144.99;100.00;52268.72;5097782;28;19959;-70
2023/05/11 04:58:28;;;;;;;;;;;;;;;-144.99;100.00;52291.16;5088575;28;19927;-70
2023/05/11 05:00:54;;;;;;;;;;;;;;;-144.99;100.00;52268.72;5101342;27;20024;-70
2023/05/11 05:03:21;;;;;;;;;;;;;;;-144.99;100.00;52313.56;5096019;28;19924;-69
2023/05/11 05:05:47;;;;;;;;;;;;;;;-144.99;100.00;52293.19;5095086;28;19955;-71
2023/05/11 05:08:14;;;;;;;;;;;;;;;-144.99;100.00;52297.25;5097090;28;20014;-69
2023/05/11 05:10:40;;;;;;;;;;;;;;;-144.99;100.00;52260.56;5096331;28;19932;-70
2023/05/11 05:13:07;;;;;;;;;;;;;;;-144.99;100.00;52342.09;5099352;28;20373;-70
2023/05/11 05:15:35;;;;;;;;;;;;;;;-144.99;100.00;52276.88;5096780;27;20019;-70
2023/05/11 05:18:01;;;;;;;;;;;;;;;-144.99;100.00;52256.50;5099809;28;19963;-70
2023/05/11 05:20:28;;;;;;;;;;;;;;;-144.99;100.00;52264.66;5092582;28;20355;-70
2023/05/11 05:22:54;;;;;;;;;;;;;;;-144.99;100.00;52297.25;5098408;28;20450;-70
2023/05/11 05:25:22;;;;;;;;;;;;;;;-144.99;100.00;52262.63;5094731;28;19942;-70
2023/05/11 05:27:48;;;;;;;;;;;;;;;-144.99;100.00;52285.03;5094735;28;19971;-71
2023/05/11 05:30:15;;;;;;;;;;;;;;;-144.99;100.00;52276.88;5094806;28;20000;-71
2023/05/11 05:32:42;;;;;;;;;;;;;;;-144.99;100.00;52297.25;5098473;28;19924;-72
2023/05/11 05:35:09;;;;;;;;;;;;;;;-144.99;100.00;52301.34;5094976;28;20024;-76
2023/05/11 05:37:36;;;;;;;;;;;;;;;-144.99;100.00;52305.41;5097124;28;20161;-72
2023/05/11 05:40:03;;;;;;;;;;;;;;;-144.99;100.00;52309.50;5097131;28;20026;-71
2023/05/11 05:42:30;;;;;;;;;;;;;;;-144.99;100.00;52293.19;5096314;28;20026;-71
2023/05/11 05:44:56;;;;;;;;;;;;;;;-144.99;100.00;52356.38;5097451;28;19967;-71
2023/05/11 05:47:23;;;;;;;;;;;;;;;-144.99;100.00;52256.50;5097198;28;19979;-71
2023/05/11 05:49:51;;;;;;;;;;;;;;;-144.99;100.00;52321.72;5098672;28;19932;-72
2023/05/11 05:52:18;;;;;;;;;;;;;;;-144.99;100.00;52289.13;5094713;28;20337;-71
2023/05/11 05:54:44;;;;;;;;;;;;;;;-144.99;100.00;52264.66;5094644;28;19927;-71
2023/05/11 05:57:13;;;;;;;;;;;;;;;-144.99;100.00;52285.03;5094093;28;19955;-71
2023/05/11 05:59:39;;;;;;;;;;;;;;;-144.99;100.00;52258.53;5089722;28;20246;-71
2023/05/11 06:02:06;;;;;;;;;;;;;;;-144.99;100.00;52293.19;5097374;28;19969;-71
2023/05/11 06:04:32;;;;;;;;;;;;;;;-144.99;100.00;52285.03;5094925;28;19972;-70
2023/05/11 06:07:00;;;;;;;;;;;;;;;-144.99;100.00;52289.13;5093982;28;19957;-71
2023/05/11 06:09:27;;;;;;;;;;;;;;;-144.99;100.00;52285.03;5089342;28;20412;-70
2023/05/11 06:11:53;;;;;;;;;;;;;;;-144.99;100.00;52285.03;5096956;28;19959;-71
2023/05/11 06:14:21;;;;;;;;;;;;;;;-144.99;100.00;52293.19;5095722;27;20256;-70
2023/05/11 06:16:47;;;;;;;;;;;;;;;-144.99;100.00;52293.19;5098215;28;19928;-70
2023/05/11 06:19:14;;;;;;;;;;;;;;;-144.99;100.00;52299.31;5101983;28;19985;-70
2023/05/11 06:21:41;;;;;;;;;;;;;;;-144.99;100.00;52315.59;5102154;28;19928;-70
2023/05/11 06:24:09;;;;;;;;;;;;;;;-144.99;100.00;52315.59;5097307;28;20411;-70
2023/05/11 06:26:36;;;;;;;;;;;;;;;-144.99;100.00;52291.16;5091024;28;19924;-70
2023/05/11 06:29:02;;;;;;;;;;;;;;;-144.99;100.00;52317.66;5092376;28;19931;-71
2023/05/11 06:31:29;;;;;;;;;;;;;;;-144.99;100.00;52289.13;5094591;28;20048;-70
2023/05/11 06:33:55;;;;;;;;;;;;;;;-144.99;100.00;52260.56;5094879;28;20332;-70
2023/05/11 06:36:22;;;;;;;;;;;;;;;-144.99;100.00;52266.69;5094469;28;19955;-71
2023/05/11 06:38:48;;;;;;;;;;;;;;;-144.99;100.00;52329.88;5094803;28;20302;-70
2023/05/11 06:41:16;;;;;;;;;;;;;;;-144.99;100.00;52327.84;5095157;28;19970;-70
2023/05/11 06:43:43;;;;;;;;;;;;;;;-144.99;100.00;52311.53;5099058;28;20080;-70
2023/05/11 06:46:14;;;;;;;;;;;;;;;-144.99;100.00;52289.13;5093951;28;22044;-70
2023/05/11 06:48:41;;;;;;;;;;;;;;;-144.99;100.00;52264.66;5092327;28;19924;-70
2023/05/11 06:51:09;;;;;;;;;;;;;;;-144.99;100.00;52252.44;5096934;28;19974;-71
2023/05/11 06:53:36;;;;;;;;;;;;;;;-144.99;100.00;52264.66;5091352;28;19924;-70
2023/05/11 06:56:03;;;;;;;;;;;;;;;-144.99;100.00;52268.72;5094061;28;20289;-70
2023/05/11 06:58:31;;;;;;;;;;;;;;;-144.99;100.00;52301.34;5092395;28;20106;-70
2023/05/11 07:00:57;;;;;;;;;;;;;;;-144.99;100.00;52268.72;5095585;28;20077;-71
2023/05/11 07:03:24;;;;;;;;;;;;;;;-144.99;100.00;52260.56;5093739;28;20548;-71
2023/05/11 07:05:50;;;;;;;;;;;;;;;-144.99;100.00;52313.56;5096970;28;19961;-71
2023/05/11 07:08:17;;;;;;;;;;;;;;;-144.99;100.00;52266.69;5090345;28;19973;-71
2023/05/11 07:10:43;;;;;;;;;;;;;;;-144.99;100.00;52272.81;5093920;28;20036;-71
2023/05/11 07:13:10;;;;;;;;;;;;;;;-144.99;100.00;52285.03;5094792;28;20033;-70
2023/05/11 07:15:38;;;;;;;;;;;;;;;-144.99;99.75;52232.03;5095272;28;20011;-70
2023/05/11 07:18:04;;;;;;;;;;;;;;;-144.99;98.92;52264.66;5090673;28;20372;-71
2023/05/11 07:20:31;;;;;;;;;;;;;;;-144.99;100.00;52264.66;5095482;28;19985;-69
2023/05/11 07:22:58;;;;;;;;;;;;;;;-144.99;98.32;52262.63;5097360;28;19978;-69
2023/05/11 07:25:25;;;;;;;;;;;;;;;-144.99;97.98;52268.72;5092874;28;20022;-70
2023/05/11 07:27:53;;;;;;;;;;;;;;;-144.99;98.00;52266.69;5090257;28;19988;-70
2023/05/11 07:30:19;;;;;;;;;;;;;;;-144.99;97.62;52272.81;5092226;28;19951;-70
2023/05/11 07:32:47;;;;;;;;;;;;;;;-144.99;98.64;52260.56;5090188;28;20485;-70
2023/05/11 07:35:14;;;;;;;;;;;;;;;-144.99;98.04;52252.44;5093062;28;19932;-71
2023/05/11 07:37:41;;;;;;;;;;;;;;;-144.99;98.34;52248.34;5093033;28;19928;-70
2023/05/11 07:40:08;;;;;;;;;;;;;;;-144.99;97.43;52260.56;5092369;28;19930;-70
2023/05/11 07:42:35;;;;;;;;;;;;;;;-144.99;97.17;52266.69;5093877;28;20478;-70
2023/05/11 07:45:01;;;;;;;;;;;;;;;-144.99;97.00;52260.56;5096438;28;20020;-70
2023/05/11 07:47:28;;;;;;;;;;;;;;;-144.99;96.47;52297.25;5096366;28;20353;-70
2023/05/11 07:49:56;;;;;;;;;;;;;;;-144.99;97.22;52276.88;5090989;28;19953;-70
2023/05/11 07:52:22;;;;;;;;;;;;;;;-144.99;98.21;52256.50;5088747;28;19923;-70
2023/05/11 07:54:49;;;;;;;;;;;;;;;-144.99;96.92;52301.34;5097403;28;19997;-72
2023/05/11 07:57:16;;;;;;;;;;;;;;;-144.99;96.11;52248.34;5088691;28;19935;-72
2023/05/11 07:59:42;;;;;;;;;;;;;;;-144.99;96.21;52242.22;5090412;28;19928;-69
2023/05/11 08:02:09;;;;;;;;;;;;;;;-144.99;95.91;52256.50;5100348;28;19924;-69
2023/05/11 08:04:36;;;;;;;;;;;;;;;-144.99;97.37;52246.31;5096781;28;19971;-69
2023/05/11 08:07:04;;;;;;;;;;;;;;;-144.99;96.40;52240.19;5098172;28;19924;-70
2023/05/11 08:09:31;;;;;;;;;;;;;;;-144.99;97.75;52303.38;5087029;28;19928;-70
2023/05/11 08:12:00;;;;;;;;;;;;;;;-144.99;98.24;52293.19;5090231;28;19930;-70
2023/05/11 08:14:27;;;;;;;;;;;;;;;-144.99;98.34;52285.03;5098124;28;19925;-70
2023/05/11 08:16:53;;;;;;;;;;;;;;;-144.99;97.97;52293.19;5086961;28;20385;-71
2023/05/11 08:19:20;;;;;;;;;;;;;;;-144.99;96.71;52252.44;5091273;28;20029;-70
2023/05/11 08:21:46;;;;;;;;;;;;;;;-144.99;95.95;52236.13;5103992;28;19927;-74
2023/05/11 08:24:14;;;;;;;;;;;;;;;-144.99;95.42;52236.13;5087594;28;19928;-70
2023/05/11 08:26:40;;;;;;;;;;;;;;;-144.99;95.43;52217.78;5088216;28;20108;-70
2023/05/11 08:29:07;;;;;;;;;;;;;;;-144.99;95.79;52264.66;5095922;28;20298;-70
2023/05/11 08:31:34;;;;;;;;;;;;;;;-144.99;95.72;52268.72;5091810;28;19969;-70
2023/05/11 08:34:00;;;;;;;;;;;;;;;-144.99;95.50;52266.69;5092456;28;19924;-69
2023/05/11 08:36:27;;;;;;;;;;;;;;;-144.99;95.68;52283.00;5092471;28;19979;-70
2023/05/11 08:38:53;;;;;;;;;;;;;;;-144.99;94.95;52250.38;5093672;28;19932;-70
2023/05/11 08:41:22;;;;;;;;;;;;;;;-144.99;95.00;52248.34;5096490;28;20102;-71
2023/05/11 08:43:49;;;;;;;;;;;;;;;-144.99;96.54;52260.56;5089169;28;20016;-71
2023/05/11 08:46:20;;;;;;;;;;;;;;;-144.99;97.29;52260.56;5093255;28;19932;-70
2023/05/11 08:48:47;;;;;;;;;;;;;;;-144.99;97.62;52248.34;5089035;28;19928;-70
2023/05/11 08:51:14;;;;;;;;;;;;;;;-144.99;97.92;52276.88;5095875;28;20016;-71
2023/05/11 08:53:40;;;;;;;;;;;;;;;-144.99;98.14;52240.19;5089821;28;19969;-71
2023/05/11 08:56:08;;;;;;;;;;;;;;;-144.99;97.87;52240.19;5092853;28;19967;-70
2023/05/11 08:58:37;;;;;;;;;;;;;;;-144.99;98.19;52244.28;5088891;28;20096;-70
2023/05/11 09:01:04;;;;;;;;;;;;;;;-144.99;96.91;52244.28;5091590;28;20406;-70
2023/05/11 09:03:31;;;;;;;;;;;;;;;-144.99;97.45;52268.72;5094112;28;20395;-70
2023/05/11 09:05:58;;;;;;;;;;;;;;;-144.99;96.56;52254.47;5093467;28;20466;-71
2023/05/11 09:08:27;;;;;;;;;;;;;;;-144.99;96.44;52260.56;5098005;28;19928;-71
2023/05/11 09:10:54;;;;;;;;;;;;;;;-144.99;96.63;52280.97;5092689;28;20140;-71
2023/05/11 09:13:20;;;;;;;;;;;;;;;-144.99;96.07;52252.44;5093704;28;19956;-71
2023/05/11 09:15:48;;;;;;;;;;;;;;;-144.99;95.33;52256.50;5090814;28;19935;-71
2023/05/11 09:18:15;;;;;;;;;;;;;;;-144.99;95.40;52227.97;5094610;28;19935;-71
2023/05/11 09:20:43;;;;;;;;;;;;;;;-144.99;94.99;52227.97;5095770;28;20454;-71
2023/05/11 09:23:09;;;;;;;;;;;;;;;-144.99;94.83;52252.44;5100042;28;20471;-72
2023/05/11 09:25:38;;;;;;;;;;;;;;;-144.99;94.73;52189.25;5095501;28;19928;-72
2023/05/11 09:28:05;;;;;;;;;;;;;;;-144.99;94.79;52230.00;5095256;28;20158;-72
2023/05/11 09:30:33;;;;;;;;;;;;;;;-144.99;94.63;52219.81;5093333;28;19967;-71
2023/05/11 09:33:02;;;;;;;;;;;;;;;-144.99;94.11;52260.56;5095311;28;19985;-72
2023/05/11 09:35:29;;;;;;;;;;;;;;;-144.99;93.91;52227.97;5096541;28;19974;-71
2023/05/11 09:37:59;;;;;;;;;;;;;;;-144.99;93.76;52244.28;5097287;28;21815;-71
2023/05/11 09:40:26;;;;;;;;;;;;;;;-144.99;93.39;52236.13;5095607;28;19932;-72
2023/05/11 09:42:53;;;;;;;;;;;;;;;-144.99;94.37;52230.00;5094677;28;19936;-72
2023/05/11 09:45:34;;;;;;;;;;;;;;;-144.99;94.08;52205.53;5094370;28;19924;-71
2023/05/11 09:48:04;;;;;;;;;;;;;;;-144.99;94.10;52207.59;5093201;28;19932;-71
2023/05/11 09:50:34;;;;;;;;;;;;;;;-144.99;93.88;52195.34;5093960;28;20100;-71
2023/05/11 09:53:01;;;;;;;;;;;;;;;-144.99;93.94;52240.19;5092679;28;19925;-71
2023/05/11 09:55:28;;;;;;;;;;;;;;;-144.99;94.21;52272.81;5096953;28;20450;-71
2023/05/11 09:57:56;;;;;;;;;;;;;;;-144.99;94.90;52246.31;5100265;28;20008;-70
2023/05/11 10:00:24;;;;;;;;;;;;;;;-144.99;96.44;52264.66;5090084;28;19928;-71
2023/05/11 10:02:59;;;;;;;;;;;;;;;-144.99;95.36;52254.47;5097157;28;19946;-70
2023/05/11 10:05:27;;;;;;;;;;;;;;;-144.99;95.01;52232.03;5107578;28;20373;-70
2023/05/11 10:07:56;;;;;;;;;;;;;;;-144.99;96.30;52252.44;5096199;28;20007;-70
2023/05/11 10:10:24;;;;;;;;;;;;;;;-144.99;96.71;52266.69;5096498;28;19989;-71
2023/05/11 10:12:51;;;;;;;;;;;;;;;-144.99;96.61;52236.13;5093103;28;20388;-71
2023/05/11 10:15:20;;;;;;;;;;;;;;;-144.99;96.54;52244.28;5106767;27;20317;-71
2023/05/11 10:17:46;;;;;;;;;;;;;;;-144.99;96.51;52254.47;5092590;28;20374;-71
2023/05/11 10:20:13;;;;;;;;;;;;;;;-144.99;96.57;52297.25;5095738;28;19959;-72
2023/05/11 10:22:41;;;;;;;;;;;;;;;-144.99;96.73;52264.66;5090246;28;20290;-71
2023/05/11 10:25:09;;;;;;;;;;;;;;;-144.99;96.50;52276.88;5096620;28;20377;-71
2023/05/11 10:27:36;;;;;;;;;;;;;;;-144.99;96.21;52219.81;5090125;28;20343;-70
2023/05/11 10:30:03;;;;;;;;;;;;;;;-144.99;95.60;52256.50;5106400;28;19969;-72
2023/05/11 10:32:33;;;;;;;;;;;;;;;-144.99;95.61;52248.34;5091514;28;20659;-72
2023/05/11 10:34:59;;;;;;;;;;;;;;;-144.99;93.68;52256.50;5098392;28;19924;-73
2023/05/11 10:37:26;;;;;;;;;;;;;;;-144.99;94.05;52256.50;5097598;28;19939;-73
2023/05/11 10:39:54;;;;;;;;;;;;;;;-144.99;93.61;52236.13;5097980;28;19928;-74
2023/05/11 10:42:29;;;;;;;;;;;;;;;-144.99;94.32;52234.09;5092278;28;19924;-73
2023/05/11 10:45:00;;;;;;;;;;;;;;;-144.99;94.80;52240.19;5094568;28;20019;-73
2023/05/11 10:47:42;;;;;;;;;;;;;;;-144.99;96.02;52264.66;5093574;28;19934;-73
2023/05/11 10:50:16;;;;;;;;;;;;;;;-144.99;97.24;52317.66;5093594;28;19924;-73
2023/05/11 10:53:01;;;;;;;;;;;;;;;-144.99;98.72;52248.34;5093241;28;20003;-73
2023/05/11 10:55:38;;;;;;;;;;;;;;;-144.99;99.49;52223.88;5097309;28;19966;-73
2023/05/11 10:58:08;;;;;;;;;;;;;;;-144.99;99.26;52260.56;5093198;28;19958;-73
2023/05/11 11:00:58;;;;;;;;;;;;;;;-144.99;99.05;52244.28;5093008;28;19928;-72
2023/05/11 11:03:25;;;;;;;;;;;;;;;-144.99;99.32;52276.88;5088318;28;20682;-74
2023/05/11 11:05:51;;;;;;;;;;;;;;;-144.99;97.40;52227.97;5091643;28;20342;-72
2023/05/11 11:08:20;;;;;;;;;;;;;;;-144.99;96.39;52240.19;5090049;28;22203;-72
2023/05/11 11:10:50;;;;;;;;;;;;;;;-144.99;95.90;52207.59;5094548;28;19973;-71
2023/05/11 11:13:18;;;;;;;;;;;;;;;-144.99;95.81;52199.44;5088009;28;19934;-70
2023/05/11 11:16:04;;;;;;;;;;;;;;;-144.99;95.68;52223.88;5093826;28;19970;-70
2023/05/11 11:18:32;;;;;;;;;;;;;;;-144.99;95.51;52236.13;5093567;28;20033;-70
2023/05/11 11:20:59;;;;;;;;;;;;;;;-144.99;95.80;52230.00;5097975;28;19923;-71
2023/05/11 11:23:47;;;;;;;;;;;;;;;-144.99;94.64;52207.59;5092646;28;19936;-70
2023/05/11 11:26:17;;;;;;;;;;;;;;;-144.99;96.73;52230.00;5093576;28;20570;-70
2023/05/11 11:29:02;;;;;;;;;;;;;;;-144.99;97.25;52280.97;5093222;28;19972;-70
2023/05/11 11:31:30;;;;;;;;;;;;;;;-144.99;97.69;52244.28;5090084;28;20030;-70
2023/05/11 11:33:57;;;;;;;;;;;;;;;-144.99;97.55;52276.88;5090863;28;19928;-71
2023/05/11 11:36:39;;;;;;;;;;;;;;;-144.99;97.22;52232.03;5096279;28;19989;-71
2023/05/11 11:39:06;;;;;;;;;;;;;;;-144.99;96.83;52244.28;5091944;28;19927;-71
2023/05/11 11:41:34;;;;;;;;;;;;;;;-144.99;97.41;52268.72;5095447;28;20057;-71
2023/05/11 11:44:00;;;;;;;;;;;;;;;-144.99;96.90;52223.88;5088382;28;19946;-71
2023/05/11 11:46:27;;;;;;;;;;;;;;;-144.99;94.60;52244.28;5096502;28;19940;-71
2023/05/11 11:49:06;;;;;;;;;;;;;;;-144.99;94.11;52227.97;5093214;28;19957;-71
2023/05/11 11:51:33;;;;;;;;;;;;;;;-144.99;95.15;52215.75;5092851;28;20030;-71
2023/05/11 11:54:00;;;;;;;;;;;;;;;-144.99;95.11;52219.81;5091892;28;19985;-71
2023/05/11 11:56:46;;;;;;;;;;;;;;;-144.99;94.90;52219.81;5095442;28;20388;-71
2023/05/11 11:59:16;;;;;;;;;;;;;;;-144.99;94.62;52227.97;5087115;28;19936;-71
2023/05/11 12:01:43;;;;;;;;;;;;;;;-144.99;93.57;52201.47;5088147;28;19928;-70
2023/05/11 12:04:29;;;;;;;;;;;;;;;-144.99;93.44;52236.13;5093679;28;20036;-70
2023/05/11 12:06:57;;;;;;;;;;;;;;;-144.99;91.24;52166.81;5090645;28;20321;-71
2023/05/11 12:09:24;;;;;;;;;;;;;;;-144.99;90.62;52191.28;5096000;28;20042;-71
2023/05/11 12:11:52;;;;;;;;;;;;;;;-144.99;89.78;52172.94;5093007;28;20011;-71
2023/05/11 12:14:20;;;;;;;;;;;;;;;-144.99;88.92;52215.75;5091011;28;20429;-71
2023/05/11 12:16:59;;;;;;;;;;;;;;;-144.99;88.41;52227.97;5096943;28;20370;-71
2023/05/11 12:19:27;;;;;;;;;;;;;;;-144.99;88.88;52191.28;5093060;28;19984;-71
2023/05/11 12:21:53;;;;;;;;;;;;;;;-144.99;88.06;52197.41;5087309;28;19956;-71
2023/05/11 12:24:20;;;;;;;;;;;;;;;-144.99;88.49;52195.34;5091617;28;20424;-72